createdAt,value
2017-01-06T00:00:54.147Z,28
2017-01-06T00:01:54.943Z,28
2017-01-06T00:02:54.452Z,28.1
2017-01-06T00:03:55.908Z,28.1
2017-01-06T00:04:55.212Z,28
2017-01-06T00:05:54.631Z,28.1
2017-01-06T00:06:56.044Z,28.1
2017-01-06T00:07:56.190Z,28.1
2017-01-06T00:08:54.656Z,28
2017-01-06T00:09:54.736Z,28.1
2017-01-06T00:10:54.648Z,28.1
2017-01-06T00:11:56.330Z,28
2017-01-06T00:12:54.786Z,28.1
2017-01-06T00:13:57.548Z,28.1
2017-01-06T00:14:55.507Z,28.1
2017-01-06T00:15:56.609Z,28.1
2017-01-06T00:16:55.009Z,28.1
2017-01-06T00:17:55.160Z,28.1
2017-01-06T00:18:55.163Z,28
2017-01-06T00:19:55.453Z,28.1
2017-01-06T00:20:56.860Z,28
2017-01-06T00:21:57.594Z,28
2017-01-06T00:22:56.953Z,28.1
2017-01-06T00:23:55.463Z,28.1
2017-01-06T00:24:55.406Z,28
2017-01-06T00:25:57.243Z,28
2017-01-06T00:26:55.463Z,28.1
2017-01-06T00:27:57.889Z,28
2017-01-06T00:28:57.388Z,28
2017-01-06T00:29:57.357Z,28
2017-01-06T00:30:55.859Z,28
2017-01-06T00:31:57.446Z,28
2017-01-06T00:32:55.769Z,28
2017-01-06T00:33:58.210Z,28
2017-01-06T00:34:55.995Z,28
2017-01-06T00:35:56.051Z,28
2017-01-06T00:36:57.593Z,28
2017-01-06T00:37:59.616Z,28
2017-01-06T00:38:56.860Z,28
2017-01-06T00:39:57.918Z,28
2017-01-06T00:40:56.390Z,28
2017-01-06T00:41:57.830Z,28
2017-01-06T00:42:56.404Z,28
2017-01-06T00:43:56.449Z,28
2017-01-06T00:44:58.125Z,28
2017-01-06T00:45:56.863Z,28
2017-01-06T00:46:56.709Z,28
2017-01-06T00:47:56.690Z,28
2017-01-06T00:48:58.463Z,28
2017-01-06T00:49:58.390Z,28
2017-01-06T00:50:56.911Z,28
2017-01-06T00:51:57.554Z,28
2017-01-06T00:52:57.691Z,28
2017-01-06T00:53:57.005Z,28
2017-01-06T00:54:57.087Z,28
2017-01-06T00:55:58.762Z,28
2017-01-06T00:56:58.797Z,28
2017-01-06T00:57:59.782Z,28
2017-01-06T00:58:58.912Z,28
2017-01-06T00:59:58.919Z,28
2017-01-06T01:00:59.790Z,28
2017-01-06T01:01:57.396Z,28
2017-01-06T01:02:57.416Z,28
2017-01-06T01:03:59.023Z,28
2017-01-06T01:04:57.522Z,28
2017-01-06T01:05:58.191Z,28
2017-01-06T01:06:57.537Z,28
2017-01-06T01:07:57.738Z,28
2017-01-06T01:08:57.642Z,28
2017-01-06T01:09:58.244Z,28
2017-01-06T01:10:59.300Z,28
2017-01-06T01:11:59.438Z,28
2017-01-06T01:12:57.839Z,28
2017-01-06T01:13:59.478Z,28
2017-01-06T01:14:57.911Z,28
2017-01-06T01:15:59.601Z,28
2017-01-06T01:16:59.735Z,28
2017-01-06T01:17:58.212Z,28
2017-01-06T01:18:59.885Z,27.9
2017-01-06T01:19:58.156Z,28
2017-01-06T01:21:00.060Z,28
2017-01-06T01:21:58.384Z,28
2017-01-06T01:22:59.950Z,27.9
2017-01-06T01:24:00.204Z,27.9
2017-01-06T01:25:00.219Z,28
2017-01-06T01:26:01.611Z,28
2017-01-06T01:26:58.801Z,28
2017-01-06T01:28:01.000Z,28
2017-01-06T01:29:00.402Z,28
2017-01-06T01:29:59.481Z,28
2017-01-06T01:31:00.486Z,27.9
2017-01-06T01:31:58.898Z,28
2017-01-06T01:32:59.192Z,28
2017-01-06T01:34:00.677Z,28
2017-01-06T01:34:59.221Z,28
2017-01-06T01:36:00.696Z,28
2017-01-06T01:37:00.861Z,28
2017-01-06T01:37:59.460Z,27.9
2017-01-06T01:39:00.995Z,27.9
2017-01-06T01:39:59.378Z,28
2017-01-06T01:40:59.459Z,28
2017-01-06T01:42:01.325Z,28
2017-01-06T01:43:01.211Z,28
2017-01-06T01:44:01.273Z,28
2017-01-06T01:45:00.395Z,28
2017-01-06T01:46:01.336Z,28
2017-01-06T01:47:01.964Z,28
2017-01-06T01:47:59.799Z,27.9
2017-01-06T01:48:59.994Z,27.9
2017-01-06T01:49:59.968Z,27.9
2017-01-06T01:51:00.079Z,27.9
2017-01-06T01:52:00.196Z,27.9
2017-01-06T01:53:00.101Z,27.9
2017-01-06T01:54:03.422Z,27.9
2017-01-06T01:55:02.365Z,27.9
2017-01-06T01:56:00.388Z,27.9
2017-01-06T01:57:00.218Z,27.9
2017-01-06T01:58:00.343Z,27.9
2017-01-06T01:59:00.450Z,27.9
2017-01-06T02:00:00.474Z,27.9
2017-01-06T02:01:00.599Z,27.9
2017-01-06T02:02:01.116Z,27.9
2017-01-06T02:03:02.265Z,27.9
2017-01-06T02:04:00.785Z,27.9
2017-01-06T02:05:02.336Z,27.9
2017-01-06T02:06:01.367Z,27.9
2017-01-06T02:07:02.844Z,27.9
2017-01-06T02:08:00.847Z,27.9
2017-01-06T02:09:00.903Z,27.9
2017-01-06T02:10:01.011Z,27.9
2017-01-06T02:11:01.126Z,27.9
2017-01-06T02:12:02.724Z,27.9
2017-01-06T02:13:02.575Z,27.9
2017-01-06T02:14:02.694Z,27.9
2017-01-06T02:15:01.098Z,27.9
2017-01-06T02:16:02.083Z,27.9
2017-01-06T02:17:01.297Z,27.9
2017-01-06T02:18:02.888Z,27.9
2017-01-06T02:19:02.904Z,27.9
2017-01-06T02:20:03.039Z,27.9
2017-01-06T02:21:03.125Z,27.9
2017-01-06T02:22:03.191Z,27.9
2017-01-06T02:23:01.632Z,27.9
2017-01-06T02:24:03.164Z,27.9
2017-01-06T02:25:03.443Z,27.9
2017-01-06T02:26:04.192Z,27.9
2017-01-06T02:27:03.483Z,27.9
2017-01-06T02:28:01.955Z,27.9
2017-01-06T02:29:01.920Z,27.9
2017-01-06T02:30:03.688Z,27.9
2017-01-06T02:31:03.676Z,27.9
2017-01-06T02:32:03.728Z,27.9
2017-01-06T02:33:03.741Z,27.9
2017-01-06T02:34:02.598Z,27.9
2017-01-06T02:35:03.436Z,27.8
2017-01-06T02:36:03.952Z,27.8
2017-01-06T02:37:04.037Z,27.8
2017-01-06T02:38:04.662Z,27.8
2017-01-06T02:39:03.218Z,27.8
2017-01-06T02:40:02.548Z,27.8
2017-01-06T02:41:02.531Z,27.8
2017-01-06T02:42:02.669Z,27.8
2017-01-06T02:43:02.594Z,27.8
2017-01-06T02:44:04.304Z,27.9
2017-01-06T02:45:04.322Z,27.8
2017-01-06T02:46:04.279Z,27.8
2017-01-06T02:47:05.005Z,27.9
2017-01-06T02:48:02.786Z,27.9
2017-01-06T02:49:04.420Z,27.8
2017-01-06T02:50:05.010Z,27.8
2017-01-06T02:51:05.858Z,27.8
2017-01-06T02:52:02.985Z,27.8
2017-01-06T02:53:05.217Z,27.8
2017-01-06T02:54:05.243Z,27.8
2017-01-06T02:55:03.251Z,27.8
2017-01-06T02:56:03.307Z,27.8
2017-01-06T02:57:04.819Z,27.8
2017-01-06T02:58:03.944Z,27.8
2017-01-06T02:59:04.932Z,27.8
2017-01-06T03:00:04.966Z,27.8
2017-01-06T03:01:03.802Z,27.8
2017-01-06T03:02:03.338Z,27.8
2017-01-06T03:03:03.315Z,27.8
2017-01-06T03:04:05.532Z,27.8
2017-01-06T03:05:04.152Z,27.8
2017-01-06T03:06:04.907Z,27.8
2017-01-06T03:07:03.788Z,27.8
2017-01-06T03:08:05.842Z,27.8
2017-01-06T03:09:07.466Z,27.8
2017-01-06T03:10:05.164Z,27.8
2017-01-06T03:11:03.937Z,27.8
2017-01-06T03:12:03.765Z,27.8
2017-01-06T03:13:03.756Z,27.8
2017-01-06T03:14:05.327Z,27.8
2017-01-06T03:15:03.754Z,27.8
2017-01-06T03:16:04.030Z,27.8
2017-01-06T03:17:05.784Z,27.8
2017-01-06T03:18:05.552Z,27.8
2017-01-06T03:19:05.407Z,27.8
2017-01-06T03:20:03.850Z,27.8
2017-01-06T03:21:04.046Z,27.8
2017-01-06T03:22:04.219Z,27.8
2017-01-06T03:23:04.150Z,27.8
2017-01-06T03:24:04.092Z,27.8
2017-01-06T03:25:04.098Z,27.8
2017-01-06T03:26:04.259Z,27.8
2017-01-06T03:27:05.962Z,27.8
2017-01-06T03:28:05.897Z,27.8
2017-01-06T03:29:04.445Z,27.8
2017-01-06T03:30:05.993Z,27.8
2017-01-06T03:31:05.943Z,27.8
2017-01-06T03:32:06.016Z,27.8
2017-01-06T03:33:06.102Z,27.8
2017-01-06T03:34:04.344Z,27.7
2017-01-06T03:35:06.232Z,27.8
2017-01-06T03:36:04.688Z,27.8
2017-01-06T03:37:06.149Z,27.7
2017-01-06T03:38:05.242Z,27.8
2017-01-06T03:39:06.309Z,27.8
2017-01-06T03:40:06.426Z,27.7
2017-01-06T03:41:04.901Z,27.7
2017-01-06T03:42:06.532Z,27.7
2017-01-06T03:43:07.201Z,27.7
2017-01-06T03:44:06.739Z,27.8
2017-01-06T03:45:05.124Z,27.8
2017-01-06T03:46:07.392Z,27.8
2017-01-06T03:47:05.460Z,27.8
2017-01-06T03:48:06.667Z,27.8
2017-01-06T03:49:05.277Z,27.7
2017-01-06T03:50:06.873Z,27.8
2017-01-06T03:51:05.174Z,27.8
2017-01-06T03:52:05.446Z,27.7
2017-01-06T03:53:06.898Z,27.7
2017-01-06T03:54:06.978Z,27.8
2017-01-06T03:55:05.474Z,27.8
2017-01-06T03:56:07.310Z,27.8
2017-01-06T03:57:05.530Z,27.7
2017-01-06T03:58:05.710Z,27.7
2017-01-06T03:59:05.728Z,27.8
2017-01-06T04:00:07.215Z,27.8
2017-01-06T04:01:05.688Z,27.8
2017-01-06T04:02:07.287Z,27.7
2017-01-06T04:03:05.968Z,27.8
2017-01-06T04:04:05.726Z,27.8
2017-01-06T04:05:07.506Z,27.8
2017-01-06T04:06:07.446Z,27.7
2017-01-06T04:07:07.617Z,27.8
2017-01-06T04:08:07.620Z,27.8
2017-01-06T04:09:07.579Z,27.7
2017-01-06T04:10:07.716Z,27.7
2017-01-06T04:11:07.574Z,27.7
2017-01-06T04:12:07.701Z,27.8
2017-01-06T04:13:06.237Z,27.8
2017-01-06T04:14:06.224Z,27.8
2017-01-06T04:15:06.313Z,27.7
2017-01-06T04:16:07.105Z,27.8
2017-01-06T04:17:08.037Z,27.8
2017-01-06T04:18:08.021Z,27.7
2017-01-06T04:19:08.041Z,27.7
2017-01-06T04:20:08.100Z,27.7
2017-01-06T04:21:06.683Z,27.7
2017-01-06T04:22:08.121Z,27.7
2017-01-06T04:23:08.282Z,27.7
2017-01-06T04:24:06.646Z,27.7
2017-01-06T04:25:06.929Z,27.7
2017-01-06T04:26:06.940Z,27.7
2017-01-06T04:27:07.051Z,27.7
2017-01-06T04:28:08.513Z,27.7
2017-01-06T04:29:07.257Z,27.7
2017-01-06T04:30:07.097Z,27.7
2017-01-06T04:31:06.987Z,27.7
2017-01-06T04:32:06.961Z,27.7
2017-01-06T04:33:09.466Z,27.7
2017-01-06T04:34:07.686Z,27.7
2017-01-06T04:35:07.260Z,27.7
2017-01-06T04:36:08.793Z,27.7
2017-01-06T04:37:07.188Z,27.7
2017-01-06T04:38:07.526Z,27.7
2017-01-06T04:39:08.015Z,27.7
2017-01-06T04:40:07.467Z,27.7
2017-01-06T04:41:09.201Z,27.7
2017-01-06T04:42:09.778Z,27.7
2017-01-06T04:43:09.132Z,27.7
2017-01-06T04:44:07.492Z,27.7
2017-01-06T04:45:09.238Z,27.7
2017-01-06T04:46:07.733Z,27.7
2017-01-06T04:47:11.324Z,27.7
2017-01-06T04:48:07.857Z,27.7
2017-01-06T04:49:08.553Z,27.7
2017-01-06T04:50:09.652Z,27.7
2017-01-06T04:51:09.676Z,27.7
2017-01-06T04:52:09.764Z,27.7
2017-01-06T04:53:08.195Z,27.7
2017-01-06T04:54:09.769Z,27.7
2017-01-06T04:55:08.221Z,27.7
2017-01-06T04:56:08.223Z,27.7
2017-01-06T04:57:08.246Z,27.7
2017-01-06T04:58:09.918Z,27.8
2017-01-06T04:59:08.339Z,27.8
2017-01-06T05:00:08.375Z,27.8
2017-01-06T05:01:08.549Z,27.8
2017-01-06T05:02:10.678Z,27.7
2017-01-06T05:03:10.078Z,27.7
2017-01-06T05:04:10.193Z,27.7
2017-01-06T05:05:10.284Z,27.7
2017-01-06T05:06:08.668Z,27.7
2017-01-06T05:07:11.536Z,27.7
2017-01-06T05:08:08.780Z,27.7
2017-01-06T05:09:10.455Z,27.7
2017-01-06T05:10:08.854Z,27.7
2017-01-06T05:11:10.557Z,27.6
2017-01-06T05:12:09.529Z,27.7
2017-01-06T05:13:10.757Z,27.7
2017-01-06T05:14:09.269Z,27.7
2017-01-06T05:15:10.884Z,27.7
2017-01-06T05:16:11.474Z,27.7
2017-01-06T05:17:10.997Z,27.7
2017-01-06T05:18:09.434Z,27.7
2017-01-06T05:19:11.195Z,27.7
2017-01-06T05:20:09.652Z,27.7
2017-01-06T05:21:11.218Z,27.7
2017-01-06T05:22:11.141Z,27.7
2017-01-06T05:23:09.762Z,27.6
2017-01-06T05:24:11.724Z,27.6
2017-01-06T05:25:09.904Z,27.6
2017-01-06T05:26:11.279Z,27.7
2017-01-06T05:27:09.855Z,27.7
2017-01-06T05:28:11.507Z,27.7
2017-01-06T05:29:11.591Z,27.7
2017-01-06T05:30:11.538Z,27.7
2017-01-06T05:31:10.043Z,27.6
2017-01-06T05:32:10.086Z,27.6
2017-01-06T05:33:11.787Z,27.6
2017-01-06T05:34:11.924Z,27.6
2017-01-06T05:35:10.315Z,27.6
2017-01-06T05:36:10.411Z,27.6
2017-01-06T05:37:12.081Z,27.6
2017-01-06T05:38:10.540Z,27.6
2017-01-06T05:39:12.740Z,27.6
2017-01-06T05:40:12.244Z,27.6
2017-01-06T05:41:12.242Z,27.6
2017-01-06T05:42:10.650Z,27.6
2017-01-06T05:43:10.853Z,27.6
2017-01-06T05:44:12.259Z,27.6
2017-01-06T05:45:12.214Z,27.6
2017-01-06T05:46:12.541Z,27.6
2017-01-06T05:47:12.346Z,27.6
2017-01-06T05:48:13.087Z,27.6
2017-01-06T05:49:12.504Z,27.6
2017-01-06T05:50:11.061Z,27.6
2017-01-06T05:51:13.554Z,27.6
2017-01-06T05:52:12.607Z,27.6
2017-01-06T05:53:12.610Z,27.6
2017-01-06T05:54:11.218Z,27.6
2017-01-06T05:55:11.253Z,27.6
2017-01-06T05:56:11.318Z,27.6
2017-01-06T05:57:11.187Z,27.6
2017-01-06T05:58:14.048Z,27.6
2017-01-06T05:59:11.264Z,27.6
2017-01-06T06:00:14.275Z,27.6
2017-01-06T06:01:11.401Z,27.6
2017-01-06T06:02:13.555Z,27.6
2017-01-06T06:03:13.031Z,27.6
2017-01-06T06:04:11.593Z,27.6
2017-01-06T06:05:13.168Z,27.6
2017-01-06T06:06:13.126Z,27.6
2017-01-06T06:07:11.675Z,27.5
2017-01-06T06:08:11.730Z,27.5
2017-01-06T06:09:11.641Z,27.6
2017-01-06T06:10:13.403Z,27.6
2017-01-06T06:11:13.350Z,27.6
2017-01-06T06:12:11.883Z,27.6
2017-01-06T06:13:14.287Z,27.6
2017-01-06T06:14:14.077Z,27.6
2017-01-06T06:15:11.915Z,27.6
2017-01-06T06:16:15.529Z,27.6
2017-01-06T06:17:13.658Z,27.6
2017-01-06T06:18:12.999Z,27.6
2017-01-06T06:19:12.675Z,27.6
2017-01-06T06:20:12.060Z,27.6
2017-01-06T06:21:12.190Z,27.6
2017-01-06T06:22:13.993Z,27.6
2017-01-06T06:23:13.822Z,27.6
2017-01-06T06:24:12.386Z,27.6
2017-01-06T06:25:14.078Z,27.6
2017-01-06T06:26:12.518Z,27.6
2017-01-06T06:27:12.682Z,27.6
2017-01-06T06:28:12.609Z,27.6
2017-01-06T06:29:12.682Z,27.6
2017-01-06T06:30:14.258Z,27.6
2017-01-06T06:31:15.617Z,27.6
2017-01-06T06:32:12.854Z,27.6
2017-01-06T06:33:12.842Z,27.6
2017-01-06T06:34:13.623Z,27.6
2017-01-06T06:35:14.460Z,27.6
2017-01-06T06:36:14.622Z,27.6
2017-01-06T06:37:12.962Z,27.6
2017-01-06T06:38:14.652Z,27.6
2017-01-06T06:39:14.678Z,27.6
2017-01-06T06:40:15.313Z,27.6
2017-01-06T06:41:14.797Z,27.6
2017-01-06T06:42:14.845Z,27.6
2017-01-06T06:43:15.465Z,27.6
2017-01-06T06:44:15.369Z,27.6
2017-01-06T06:45:13.363Z,27.6
2017-01-06T06:46:15.049Z,27.6
2017-01-06T06:47:16.217Z,27.6
2017-01-06T06:48:13.554Z,27.6
2017-01-06T06:49:15.225Z,27.6
2017-01-06T06:50:15.191Z,27.6
2017-01-06T06:51:14.384Z,27.6
2017-01-06T06:52:15.269Z,27.6
2017-01-06T06:53:13.893Z,27.6
2017-01-06T06:54:16.160Z,27.6
2017-01-06T06:55:16.154Z,27.6
2017-01-06T06:56:16.153Z,27.6
2017-01-06T06:57:14.174Z,27.6
2017-01-06T06:58:15.659Z,27.6
2017-01-06T06:59:15.862Z,27.6
2017-01-06T07:00:15.856Z,27.6
2017-01-06T07:01:14.246Z,27.6
2017-01-06T07:02:14.241Z,27.6
2017-01-06T07:03:17.314Z,27.7
2017-01-06T07:04:14.314Z,27.7
2017-01-06T07:05:14.351Z,27.7
2017-01-06T07:06:14.486Z,27.8
2017-01-06T07:07:14.426Z,27.8
2017-01-06T07:08:14.558Z,27.8
2017-01-06T07:09:16.231Z,27.8
2017-01-06T07:10:16.249Z,27.8
2017-01-06T07:11:14.818Z,27.8
2017-01-06T07:12:16.217Z,27.9
2017-01-06T07:13:16.366Z,27.9
2017-01-06T07:14:14.859Z,27.9
2017-01-06T07:15:14.927Z,27.9
2017-01-06T07:16:16.660Z,27.9
2017-01-06T07:17:16.662Z,27.9
2017-01-06T07:18:14.967Z,28
2017-01-06T07:19:16.068Z,28
2017-01-06T07:20:15.788Z,28
2017-01-06T07:21:15.263Z,28
2017-01-06T07:22:16.771Z,28
2017-01-06T07:23:15.412Z,28
2017-01-06T07:24:15.315Z,28
2017-01-06T07:25:16.947Z,28.1
2017-01-06T07:26:17.150Z,28.1
2017-01-06T07:27:15.438Z,28.1
2017-01-06T07:28:15.481Z,28.1
2017-01-06T07:29:17.063Z,28.1
2017-01-06T07:30:15.415Z,28.1
2017-01-06T07:31:17.198Z,28.1
2017-01-06T07:32:15.497Z,28.1
2017-01-06T07:33:17.246Z,28.2
2017-01-06T07:34:17.685Z,28.2
2017-01-06T07:35:17.108Z,28.2
2017-01-06T07:36:17.239Z,28.2
2017-01-06T07:37:17.824Z,28.2
2017-01-06T07:38:17.471Z,28.2
2017-01-06T07:39:19.015Z,28.2
2017-01-06T07:40:17.564Z,28.2
2017-01-06T07:41:15.996Z,28.2
2017-01-06T07:42:17.514Z,28.3
2017-01-06T07:43:15.831Z,28.3
2017-01-06T07:44:18.502Z,28.3
2017-01-06T07:45:16.055Z,28.3
2017-01-06T07:46:16.252Z,28.3
2017-01-06T07:47:18.524Z,28.3
2017-01-06T07:48:18.813Z,28.4
2017-01-06T07:49:18.133Z,28.4
2017-01-06T07:50:19.517Z,28.4
2017-01-06T07:51:18.187Z,28.4
2017-01-06T07:52:16.744Z,28.4
2017-01-06T07:53:16.825Z,28.4
2017-01-06T07:54:18.466Z,28.5
2017-01-06T07:55:16.823Z,28.5
2017-01-06T07:56:16.738Z,28.5
2017-01-06T07:57:18.486Z,28.5
2017-01-06T07:58:16.840Z,28.6
2017-01-06T07:59:17.054Z,28.6
2017-01-06T08:00:19.176Z,28.6
2017-01-06T08:01:18.590Z,28.6
2017-01-06T08:02:17.847Z,28.6
2017-01-06T08:03:17.906Z,28.6
2017-01-06T08:04:18.849Z,28.7
2017-01-06T08:05:20.329Z,28.7
2017-01-06T08:06:17.539Z,28.8
2017-01-06T08:07:17.954Z,28.7
2017-01-06T08:08:19.493Z,28.8
2017-01-06T08:09:18.960Z,28.9
2017-01-06T08:10:19.030Z,28.9
2017-01-06T08:11:17.577Z,29
2017-01-06T08:12:19.259Z,29
2017-01-06T08:13:19.143Z,29.1
2017-01-06T08:14:19.184Z,29.1
2017-01-06T08:15:17.722Z,29.1
2017-01-06T08:16:17.858Z,29.2
2017-01-06T08:17:19.616Z,29.1
2017-01-06T08:18:18.034Z,29.2
2017-01-06T08:19:19.626Z,29.2
2017-01-06T08:20:21.942Z,29.3
2017-01-06T08:21:19.664Z,29.4
2017-01-06T08:22:19.900Z,29.3
2017-01-06T08:23:19.855Z,29
2017-01-06T08:24:19.257Z,28.8
2017-01-06T08:25:19.912Z,28.5
2017-01-06T08:26:19.920Z,28.2
2017-01-06T08:27:20.171Z,28
2017-01-06T08:28:18.594Z,27.7
2017-01-06T08:29:20.759Z,27.4
2017-01-06T08:30:20.255Z,27.2
2017-01-06T08:31:20.093Z,27
2017-01-06T08:32:18.615Z,26.8
2017-01-06T08:33:19.488Z,26.6
2017-01-06T08:34:20.419Z,26.4
2017-01-06T08:35:18.893Z,26.2
2017-01-06T08:36:20.614Z,26.1
2017-01-06T08:37:19.823Z,25.9
2017-01-06T08:38:20.236Z,25.7
2017-01-06T08:39:19.162Z,25.6
2017-01-06T08:40:20.832Z,25.4
2017-01-06T08:41:20.688Z,25.2
2017-01-06T08:42:20.541Z,25
2017-01-06T08:43:19.445Z,24.9
2017-01-06T08:44:19.448Z,24.7
2017-01-06T08:45:20.039Z,24.5
2017-01-06T08:46:19.693Z,24.4
2017-01-06T08:47:21.229Z,24.2
2017-01-06T08:48:21.870Z,24.1
2017-01-06T08:49:21.165Z,23.9
2017-01-06T08:50:20.800Z,23.6
2017-01-06T08:51:19.875Z,23.6
2017-01-06T08:52:21.380Z,23.6
2017-01-06T08:53:21.958Z,23.7
2017-01-06T08:54:23.151Z,23.9
2017-01-06T08:55:20.106Z,24.1
2017-01-06T08:56:21.698Z,24.3
2017-01-06T08:57:22.380Z,24.5
2017-01-06T08:58:20.972Z,24.7
2017-01-06T08:59:21.895Z,24.9
2017-01-06T09:00:21.801Z,25.1
2017-01-06T09:01:20.328Z,25.3
2017-01-06T09:02:21.136Z,25.4
2017-01-06T09:03:21.006Z,25.5
2017-01-06T09:04:20.391Z,25.7
2017-01-06T09:05:22.125Z,25.8
2017-01-06T09:06:21.971Z,25.9
2017-01-06T09:07:21.217Z,26
2017-01-06T09:08:22.141Z,26.1
2017-01-06T09:09:20.621Z,26.2
2017-01-06T09:10:20.733Z,26.3
2017-01-06T09:11:23.288Z,26.4
2017-01-06T09:12:23.219Z,26.5
2017-01-06T09:13:22.562Z,26.5
2017-01-06T09:14:22.626Z,26.6
2017-01-06T09:15:20.809Z,26.7
2017-01-06T09:16:22.629Z,26.7
2017-01-06T09:17:21.997Z,26.8
2017-01-06T09:18:22.734Z,26.8
2017-01-06T09:19:22.701Z,26.9
2017-01-06T09:20:21.991Z,26.9
2017-01-06T09:21:22.491Z,27
2017-01-06T09:22:22.893Z,27
2017-01-06T09:23:23.085Z,27.1
2017-01-06T09:24:23.113Z,27.1
2017-01-06T09:25:23.037Z,27.2
2017-01-06T09:26:24.506Z,27.2
2017-01-06T09:27:23.134Z,27.2
2017-01-06T09:28:23.051Z,27.3
2017-01-06T09:29:23.311Z,27.3
2017-01-06T09:30:22.303Z,27.2
2017-01-06T09:31:22.525Z,27.3
2017-01-06T09:32:22.191Z,27.3
2017-01-06T09:33:23.453Z,27.3
2017-01-06T09:34:21.930Z,27
2017-01-06T09:35:21.818Z,26.8
2017-01-06T09:36:21.842Z,26.4
2017-01-06T09:37:23.513Z,26.1
2017-01-06T09:38:22.102Z,25.9
2017-01-06T09:39:23.788Z,25.6
2017-01-06T09:40:25.309Z,25.3
2017-01-06T09:41:22.120Z,25.1
2017-01-06T09:42:23.791Z,24.9
2017-01-06T09:43:22.301Z,24.7
2017-01-06T09:44:22.184Z,24.5
2017-01-06T09:45:24.074Z,24.4
2017-01-06T09:46:23.149Z,24.2
2017-01-06T09:47:24.159Z,24.1
2017-01-06T09:48:23.765Z,24.1
2017-01-06T09:49:22.503Z,24.1
2017-01-06T09:50:22.447Z,24
2017-01-06T09:51:23.101Z,23.9
2017-01-06T09:52:23.479Z,23.8
2017-01-06T09:53:22.687Z,23.8
2017-01-06T09:54:25.605Z,23.6
2017-01-06T09:55:24.405Z,23.5
2017-01-06T09:56:23.010Z,23.4
2017-01-06T09:57:24.282Z,23.3
2017-01-06T09:58:25.042Z,23.2
2017-01-06T09:59:22.978Z,23.1
2017-01-06T10:00:24.682Z,23.1
2017-01-06T10:01:23.082Z,23
2017-01-06T10:02:25.369Z,23
2017-01-06T10:03:23.171Z,23
2017-01-06T10:04:23.405Z,22.9
2017-01-06T10:05:23.374Z,23
2017-01-06T10:06:23.316Z,23
2017-01-06T10:07:25.137Z,23.2
2017-01-06T10:08:23.708Z,23.4
2017-01-06T10:09:25.341Z,23.6
2017-01-06T10:10:25.326Z,23.9
2017-01-06T10:11:26.057Z,24.1
2017-01-06T10:12:24.338Z,24.3
2017-01-06T10:13:25.957Z,24.5
2017-01-06T10:14:25.376Z,24.7
2017-01-06T10:15:24.702Z,24.9
2017-01-06T10:16:26.226Z,25
2017-01-06T10:17:23.973Z,25.2
2017-01-06T10:18:25.523Z,25.4
2017-01-06T10:19:26.427Z,25.4
2017-01-06T10:20:24.263Z,25.6
2017-01-06T10:21:25.831Z,25.7
2017-01-06T10:22:24.867Z,25.8
2017-01-06T10:23:25.785Z,25.9
2017-01-06T10:24:26.963Z,26
2017-01-06T10:25:25.933Z,26.1
2017-01-06T10:26:24.883Z,26.2
2017-01-06T10:27:26.078Z,26.3
2017-01-06T10:28:26.127Z,26.4
2017-01-06T10:29:26.239Z,26.4
2017-01-06T10:30:24.503Z,26.5
2017-01-06T10:31:26.722Z,26.5
2017-01-06T10:32:25.262Z,26.3
2017-01-06T10:33:26.213Z,26
2017-01-06T10:34:24.827Z,25.7
2017-01-06T10:35:26.381Z,25.4
2017-01-06T10:36:25.535Z,25.1
2017-01-06T10:37:29.360Z,24.9
2017-01-06T10:38:24.761Z,24.7
2017-01-06T10:39:24.824Z,24.6
2017-01-06T10:40:26.537Z,24.5
2017-01-06T10:41:25.134Z,24.6
2017-01-06T10:42:26.519Z,24.7
2017-01-06T10:43:26.613Z,24.9
2017-01-06T10:44:26.701Z,25.1
2017-01-06T10:45:25.239Z,25.3
2017-01-06T10:46:27.423Z,25.5
2017-01-06T10:47:27.305Z,25.6
2017-01-06T10:48:26.827Z,25.8
2017-01-06T10:49:27.036Z,26
2017-01-06T10:50:27.693Z,26.1
2017-01-06T10:51:27.632Z,26.2
2017-01-06T10:52:27.815Z,26.4
2017-01-06T10:53:27.137Z,26.5
2017-01-06T10:54:48.949Z,26.7
2017-01-06T10:55:47.419Z,26.8
2017-01-06T10:56:49.873Z,26.9
2017-01-06T10:57:47.408Z,26.9
2017-01-06T10:58:49.001Z,27.1
2017-01-06T10:59:47.634Z,27.2
2017-01-06T11:00:49.975Z,27.2
2017-01-06T11:01:47.653Z,27.3
2017-01-06T11:02:47.838Z,27.4
2017-01-06T11:03:49.539Z,27.5
2017-01-06T11:04:49.560Z,27.5
2017-01-06T11:05:50.093Z,27.6
2017-01-06T11:06:48.107Z,27.7
2017-01-06T11:07:49.723Z,27.8
2017-01-06T11:08:49.639Z,27.8
2017-01-06T11:09:49.825Z,27.8
2017-01-06T11:10:48.150Z,27.9
2017-01-06T11:11:50.265Z,28
2017-01-06T11:12:48.340Z,28
2017-01-06T11:13:51.299Z,28.1
2017-01-06T11:14:48.318Z,28.1
2017-01-06T11:15:48.437Z,28.2
2017-01-06T11:16:49.957Z,28.2
2017-01-06T11:17:49.475Z,28.3
2017-01-06T11:18:48.752Z,28.3
2017-01-06T11:19:48.677Z,28.4
2017-01-06T11:20:50.304Z,28.4
2017-01-06T11:21:48.763Z,28.4
2017-01-06T11:22:51.037Z,28.5
2017-01-06T11:23:50.508Z,28.6
2017-01-06T11:24:49.495Z,28.6
2017-01-06T11:25:49.026Z,28.6
2017-01-06T11:26:53.174Z,28.7
2017-01-06T11:27:51.243Z,28.7
2017-01-06T11:28:51.068Z,28.7
2017-01-06T11:29:50.720Z,28.8
2017-01-06T11:30:49.044Z,28.8
2017-01-06T11:31:49.252Z,28.8
2017-01-06T11:32:49.732Z,28.9
2017-01-06T11:33:50.005Z,28.9
2017-01-06T11:34:49.875Z,29
2017-01-06T11:35:50.998Z,29
2017-01-06T11:36:50.131Z,29
2017-01-06T11:37:51.705Z,29.1
2017-01-06T11:38:51.143Z,29
2017-01-06T11:39:50.646Z,29.1
2017-01-06T11:40:52.368Z,29.1
2017-01-06T11:41:51.105Z,29.2
2017-01-06T11:42:49.533Z,29.2
2017-01-06T11:43:51.251Z,29.2
2017-01-06T11:44:49.701Z,29.3
2017-01-06T11:45:49.793Z,29.3
2017-01-06T11:46:49.879Z,29.4
2017-01-06T11:47:52.008Z,29.4
2017-01-06T11:48:52.059Z,29.5
2017-01-06T11:49:49.923Z,29.4
2017-01-06T11:50:51.699Z,29.5
2017-01-06T11:51:50.338Z,29.5
2017-01-06T11:52:50.036Z,29.6
2017-01-06T11:53:50.077Z,29.6
2017-01-06T11:54:51.740Z,29.6
2017-01-06T11:55:50.762Z,29.7
2017-01-06T11:56:52.488Z,29.7
2017-01-06T11:57:52.499Z,29.7
2017-01-06T11:58:54.382Z,29.7
2017-01-06T11:59:51.318Z,29.7
2017-01-06T12:00:50.447Z,29.8
2017-01-06T12:01:52.067Z,29.8
2017-01-06T12:02:52.052Z,29.8
2017-01-06T12:03:51.348Z,29.7
2017-01-06T12:04:52.267Z,29.4
2017-01-06T12:05:52.765Z,29.1
2017-01-06T12:06:52.346Z,28.8
2017-01-06T12:07:52.012Z,28.5
2017-01-06T12:08:50.766Z,28.1
2017-01-06T12:09:52.475Z,27.9
2017-01-06T12:10:52.575Z,27.6
2017-01-06T12:11:51.052Z,27.4
2017-01-06T12:12:50.874Z,27.2
2017-01-06T12:13:51.096Z,27
2017-01-06T12:14:52.745Z,26.7
2017-01-06T12:15:53.349Z,26.6
2017-01-06T12:16:53.471Z,26.4
2017-01-06T12:17:51.263Z,26.4
2017-01-06T12:18:51.349Z,26.2
2017-01-06T12:19:53.155Z,26.1
2017-01-06T12:20:51.491Z,26
2017-01-06T12:21:53.218Z,25.9
2017-01-06T12:22:53.164Z,25.7
2017-01-06T12:23:51.481Z,25.6
2017-01-06T12:24:53.107Z,25.5
2017-01-06T12:25:53.747Z,25.4
2017-01-06T12:26:53.314Z,25.2
2017-01-06T12:27:53.373Z,25.2
2017-01-06T12:28:54.035Z,25.1
2017-01-06T12:29:52.496Z,25
2017-01-06T12:30:53.277Z,24.9
2017-01-06T12:31:51.916Z,24.9
2017-01-06T12:32:51.866Z,24.8
2017-01-06T12:33:53.491Z,24.7
2017-01-06T12:34:53.791Z,24.6
2017-01-06T12:35:53.636Z,24.6
2017-01-06T12:36:53.491Z,24.5
2017-01-06T12:37:53.721Z,24.5
2017-01-06T12:38:54.503Z,24.4
2017-01-06T12:39:54.969Z,24.4
2017-01-06T12:40:54.085Z,24.3
2017-01-06T12:41:53.125Z,24.2
2017-01-06T12:42:52.480Z,24.1
2017-01-06T12:43:53.864Z,24.1
2017-01-06T12:44:54.259Z,24.1
2017-01-06T12:45:54.262Z,24
2017-01-06T12:46:54.218Z,24
2017-01-06T12:47:54.333Z,24
2017-01-06T12:48:54.403Z,24
2017-01-06T12:49:52.745Z,24
2017-01-06T12:50:52.936Z,23.9
2017-01-06T12:51:54.454Z,23.9
2017-01-06T12:52:54.177Z,23.9
2017-01-06T12:53:52.883Z,23.8
2017-01-06T12:54:53.526Z,23.7
2017-01-06T12:55:55.433Z,23.7
2017-01-06T12:56:53.005Z,23.8
2017-01-06T12:57:55.522Z,24
2017-01-06T12:58:56.293Z,24.2
2017-01-06T12:59:55.433Z,24.4
2017-01-06T13:00:54.543Z,24.5
2017-01-06T13:01:54.984Z,24.8
2017-01-06T13:02:54.095Z,25
2017-01-06T13:03:54.969Z,25.2
2017-01-06T13:04:54.720Z,25.3
2017-01-06T13:05:55.140Z,25.5
2017-01-06T13:06:55.150Z,25.3
2017-01-06T13:07:54.156Z,25.8
2017-01-06T13:08:53.652Z,25.9
2017-01-06T13:09:55.984Z,26
2017-01-06T13:10:56.925Z,26.2
2017-01-06T13:11:55.426Z,26.3
2017-01-06T13:12:54.108Z,26.4
2017-01-06T13:13:55.610Z,26.5
2017-01-06T13:14:56.425Z,26.6
2017-01-06T13:15:54.598Z,26.7
2017-01-06T13:16:54.073Z,26.8
2017-01-06T13:17:57.697Z,26.8
2017-01-06T13:18:55.016Z,27
2017-01-06T13:19:55.077Z,27
2017-01-06T13:20:56.591Z,27.1
2017-01-06T13:21:54.854Z,27.2
2017-01-06T13:22:56.601Z,27.2
2017-01-06T13:23:59.122Z,27.2
2017-01-06T13:24:54.432Z,27.3
2017-01-06T13:25:56.059Z,27.4
2017-01-06T13:26:54.510Z,27.4
2017-01-06T13:27:56.326Z,27.5
2017-01-06T13:28:54.609Z,27.6